createdAt,value
2023-05-12T00:03:03.676Z,989.57
2023-05-12T00:08:07.716Z,989.44
2023-05-12T00:13:11.930Z,989.34
2023-05-12T00:18:16.086Z,989.33
2023-05-12T00:23:20.215Z,989.18
2023-05-12T00:28:24.363Z,989.13
2023-05-12T00:33:28.555Z,989.11
2023-05-12T00:38:32.685Z,989.12
2023-05-12T00:43:36.861Z,989.18
2023-05-12T00:48:41.009Z,989.17
2023-05-12T00:53:49.195Z,989.26
2023-05-12T00:58:49.384Z,989.24
2023-05-12T01:03:53.467Z,989.41
2023-05-12T01:08:57.632Z,989.45
2023-05-12T01:13:59.868Z,989.48
2023-05-12T01:19:04.116Z,989.51
2023-05-12T01:24:08.240Z,989.55
2023-05-12T01:29:12.386Z,989.60
2023-05-12T01:34:16.489Z,989.63
2023-05-12T01:39:20.705Z,989.69
2023-05-12T01:44:24.841Z,989.76
2023-05-12T01:49:29.033Z,989.89
2023-05-12T01:54:33.165Z,989.90
2023-05-12T01:59:37.364Z,990.01
2023-05-12T02:04:41.471Z,990.12
2023-05-12T02:09:45.653Z,990.18
2023-05-12T02:14:49.783Z,990.21
2023-05-12T02:19:53.990Z,990.20
2023-05-12T02:24:58.123Z,990.37
2023-05-12T02:30:02.302Z,990.46
2023-05-12T02:35:06.458Z,990.49
2023-05-12T02:40:10.634Z,990.66
2023-05-12T02:45:14.849Z,990.70
2023-05-12T02:50:19.274Z,990.63
2023-05-12T02:55:23.098Z,990.68
2023-05-12T03:00:27.324Z,990.68
2023-05-12T03:05:31.448Z,990.73
2023-05-12T03:10:35.623Z,990.83
2023-05-12T03:15:39.737Z,990.84
2023-05-12T03:20:43.932Z,990.90
2023-05-12T03:25:48.061Z,990.87
2023-05-12T03:30:52.181Z,990.74
2023-05-12T03:35:56.383Z,990.93
2023-05-12T03:41:00.536Z,990.88
2023-05-12T03:46:04.759Z,990.84
2023-05-12T03:51:08.889Z,990.86
2023-05-12T03:56:13.022Z,990.92
2023-05-12T04:01:17.207Z,990.96
2023-05-12T04:06:21.368Z,990.99
2023-05-12T04:11:25.543Z,991.00
2023-05-12T04:16:29.762Z,991.02
2023-05-12T04:21:33.864Z,991.04
2023-05-12T04:26:37.996Z,991.14
2023-05-12T04:31:42.165Z,991.16
2023-05-12T04:36:46.310Z,991.26
2023-05-12T04:41:50.466Z,991.21
2023-05-12T04:46:54.626Z,991.38
2023-05-12T04:51:58.818Z,991.45
2023-05-12T04:57:02.961Z,991.47
2023-05-12T05:02:07.122Z,991.59
2023-05-12T05:07:11.287Z,991.68
2023-05-12T05:12:15.423Z,991.64
2023-05-12T05:17:19.623Z,991.80
2023-05-12T05:22:23.811Z,991.82
2023-05-12T05:27:27.914Z,991.93
2023-05-12T05:32:32.199Z,991.92
2023-05-12T05:37:36.247Z,991.94
2023-05-12T05:42:40.457Z,992.11
2023-05-12T05:47:44.616Z,992.12
2023-05-12T05:52:48.741Z,992.11
2023-05-12T05:57:52.895Z,992.18
2023-05-12T06:02:57.200Z,992.24
2023-05-12T06:08:01.224Z,992.37
2023-05-12T06:13:05.342Z,992.51
2023-05-12T06:18:09.563Z,992.52
2023-05-12T06:23:15.761Z,992.74
2023-05-12T06:28:17.818Z,992.88
2023-05-12T06:33:22.031Z,993.06
2023-05-12T06:38:26.208Z,993.22
2023-05-12T06:43:28.435Z,993.41
2023-05-12T06:48:32.641Z,993.62
2023-05-12T06:53:36.760Z,993.75
2023-05-12T06:58:40.927Z,993.96
2023-05-12T07:03:45.147Z,994.01
2023-05-12T07:08:49.320Z,994.16
2023-05-12T07:13:51.522Z,994.27
2023-05-12T07:18:55.729Z,994.35
2023-05-12T07:23:59.863Z,994.57
2023-05-12T07:29:03.976Z,994.54
2023-05-12T07:34:08.183Z,994.62
2023-05-12T07:39:12.344Z,994.72
2023-05-12T07:44:16.471Z,994.75
2023-05-12T07:49:20.635Z,994.87
2023-05-12T07:54:24.803Z,994.83
2023-05-12T07:59:28.946Z,995.10
2023-05-12T08:04:33.315Z,995.11
2023-05-12T08:09:37.302Z,995.26
2023-05-12T08:14:41.490Z,995.42
2023-05-12T08:19:45.588Z,995.46
2023-05-12T08:24:49.748Z,995.54
2023-05-12T08:29:53.925Z,995.72
2023-05-12T08:34:58.079Z,995.89
2023-05-12T08:40:02.245Z,996.17
2023-05-12T08:45:08.449Z,996.40
2023-05-12T08:50:10.565Z,996.43
2023-05-12T08:55:14.699Z,996.48
2023-05-12T09:00:19.137Z,996.44
2023-05-12T09:05:23.512Z,996.75
2023-05-12T09:10:35.115Z,996.69
2023-05-12T09:15:31.304Z,996.86
2023-05-12T09:20:35.577Z,997.01
2023-05-12T09:25:39.703Z,997.06
2023-05-12T09:30:43.866Z,997.36
2023-05-12T09:35:48.018Z,997.33
2023-05-12T09:40:52.153Z,997.34
2023-05-12T09:45:56.376Z,997.36
2023-05-12T09:51:00.501Z,997.38
2023-05-12T09:56:04.649Z,997.42
2023-05-12T10:01:21.782Z,997.27
2023-05-12T10:06:12.996Z,997.36
2023-05-12T10:11:17.082Z,997.35
2023-05-12T10:16:21.481Z,997.39
2023-05-12T10:26:29.721Z,997.56
2023-05-12T10:31:33.882Z,997.50
2023-05-12T10:36:37.924Z,997.56
2023-05-12T10:41:42.075Z,997.53
2023-05-12T10:46:46.298Z,997.55
2023-05-12T10:51:50.368Z,997.49
2023-05-12T10:56:54.745Z,997.58
2023-05-12T11:01:59.054Z,997.46
2023-05-12T11:07:03.187Z,997.57
2023-05-12T11:12:08.826Z,997.42
2023-05-12T11:17:11.180Z,997.44
2023-05-12T11:22:15.345Z,997.48
2023-05-12T11:27:19.470Z,997.42
2023-05-12T11:32:23.714Z,997.18
2023-05-12T11:37:27.795Z,997.31
2023-05-12T11:42:31.976Z,997.26
2023-05-12T11:47:36.207Z,997.31
2023-05-12T11:52:40.300Z,997.28
2023-05-12T11:57:44.429Z,997.28
2023-05-12T12:02:48.695Z,997.28
2023-05-12T12:07:52.766Z,997.21
2023-05-12T12:12:56.941Z,997.12
2023-05-12T12:18:01.190Z,997.18
2023-05-12T12:28:09.426Z,997.21
2023-05-12T12:33:13.631Z,997.06
2023-05-12T12:43:21.895Z,997.32
2023-05-12T12:48:24.137Z,997.18
2023-05-12T12:53:28.427Z,997.05
2023-05-12T12:58:32.459Z,996.73
2023-05-12T13:03:36.679Z,996.71
2023-05-12T13:08:40.830Z,996.53
2023-05-12T13:13:44.918Z,996.40
2023-05-12T13:18:49.109Z,996.38
2023-05-12T13:23:53.287Z,996.33
2023-05-12T13:28:57.430Z,996.56
2023-05-12T13:34:01.588Z,996.58
2023-05-12T13:39:05.737Z,996.61
2023-05-12T13:44:09.918Z,996.78
2023-05-12T13:54:18.199Z,997.15
2023-05-12T13:59:20.512Z,996.79
2023-05-12T14:04:22.749Z,996.60
2023-05-12T14:09:33.958Z,996.33
2023-05-12T14:14:45.072Z,996.29
2023-05-12T14:19:56.265Z,996.14
2023-05-12T14:25:07.423Z,996.17
2023-05-12T14:30:16.779Z,996.20
2023-05-12T14:35:21.128Z,996.34
2023-05-12T14:40:25.060Z,996.29
2023-05-12T14:45:29.213Z,996.41
2023-05-12T14:50:33.361Z,996.17
2023-05-12T14:55:37.471Z,1001.90
2023-05-12T15:00:42.309Z,999.31
2023-05-12T15:06:01.587Z,996.67
2023-05-12T15:10:50.002Z,998.42
2023-05-12T15:15:56.414Z,998.07
2023-05-12T15:20:58.252Z,998.01
2023-05-12T15:26:10.523Z,998.03
2023-05-12T15:31:06.636Z,997.79
2023-05-12T15:36:10.760Z,997.50
2023-05-12T15:41:14.923Z,997.32
2023-05-12T15:46:19.146Z,997.35
2023-05-12T15:51:23.307Z,996.90
2023-05-12T15:56:27.461Z,996.50
2023-05-12T16:01:31.661Z,996.56
2023-05-12T16:06:35.749Z,996.76
2023-05-12T16:11:37.972Z,996.76
2023-05-12T16:16:42.183Z,996.77
2023-05-12T16:21:46.278Z,996.69
2023-05-12T16:26:50.455Z,996.61
2023-05-12T16:31:54.713Z,996.36
2023-05-12T16:36:58.786Z,996.83
2023-05-12T16:42:02.943Z,996.90
2023-05-12T16:47:07.175Z,996.83
2023-05-12T16:52:12.428Z,996.40
2023-05-12T16:57:15.417Z,995.87
2023-05-12T17:02:19.686Z,995.88
2023-05-12T17:07:23.741Z,996.03
2023-05-12T17:17:32.151Z,996.32
2023-05-12T17:22:36.219Z,995.97
2023-05-12T17:27:40.578Z,996.11
2023-05-12T17:32:44.589Z,996.34
2023-05-12T17:37:48.796Z,996.53
2023-05-12T17:42:52.808Z,996.28
2023-05-12T17:47:57.033Z,996.26
2023-05-12T17:53:01.195Z,996.24
2023-05-12T17:58:03.528Z,996.26
2023-05-12T18:03:07.779Z,996.28
2023-05-12T18:08:11.851Z,996.45
2023-05-12T18:13:15.967Z,996.75
2023-05-12T18:18:20.138Z,997.93
2023-05-12T18:23:24.244Z,998.12
2023-05-12T18:28:28.396Z,998.38
2023-05-12T18:33:32.608Z,998.41
2023-05-12T18:38:36.736Z,998.40
2023-05-12T18:43:40.938Z,998.29
2023-05-12T18:48:45.092Z,998.26
2023-05-12T18:53:49.215Z,998.26
2023-05-12T18:58:53.400Z,998.18
2023-05-12T19:03:57.524Z,998.04
2023-05-12T19:09:01.724Z,998.10
2023-05-12T19:14:05.837Z,998.02
2023-05-12T19:19:10.251Z,998.00
2023-05-12T19:24:14.212Z,998.04
2023-05-12T19:29:18.342Z,998.09
2023-05-12T19:34:22.443Z,998.07
2023-05-12T19:39:26.707Z,998.15
2023-05-12T19:44:30.850Z,997.96
2023-05-12T19:49:35.010Z,997.88
2023-05-12T19:54:39.131Z,997.84
2023-05-12T19:59:43.309Z,997.84
2023-05-12T20:04:47.444Z,997.74
2023-05-12T20:09:51.622Z,997.74
2023-05-12T20:14:55.773Z,997.73
2023-05-12T20:19:59.968Z,997.63
2023-05-12T20:25:04.151Z,997.64
2023-05-12T20:30:08.258Z,997.69
2023-05-12T20:35:12.438Z,997.62
2023-05-12T20:40:16.584Z,997.67
2023-05-12T20:45:21.054Z,997.58
2023-05-12T20:50:24.920Z,997.59
2023-05-12T20:55:29.004Z,997.61
2023-05-12T21:00:33.259Z,997.63
2023-05-12T21:05:37.398Z,997.70
2023-05-12T21:10:41.524Z,997.62
2023-05-12T21:15:45.672Z,997.61
2023-05-12T21:20:49.864Z,997.55
2023-05-12T21:25:53.984Z,997.46
2023-05-12T21:30:58.164Z,997.48
2023-05-12T21:36:02.409Z,997.42
2023-05-12T21:41:06.500Z,997.46
2023-05-12T21:46:10.735Z,997.56
2023-05-12T21:51:14.827Z,997.51
2023-05-12T21:56:18.951Z,997.46
2023-05-12T22:01:23.214Z,997.45
2023-05-12T22:06:27.342Z,997.40
2023-05-12T22:11:31.487Z,997.40
2023-05-12T22:16:42.046Z,997.32
2023-05-12T22:21:39.773Z,997.38
2023-05-12T22:26:44.243Z,997.33
2023-05-12T22:36:52.471Z,997.37
2023-05-12T22:41:56.341Z,997.22
2023-05-12T22:47:11.671Z,997.32
2023-05-12T22:52:13.077Z,997.20
2023-05-12T22:57:08.812Z,997.11
2023-05-12T23:02:13.081Z,997.02
2023-05-12T23:07:17.109Z,997.11
2023-05-12T23:12:21.316Z,997.04
2023-05-12T23:22:29.620Z,997.08
2023-05-12T23:27:31.954Z,997.11
2023-05-12T23:32:36.183Z,997.20
2023-05-12T23:37:40.221Z,997.19
2023-05-12T23:42:44.407Z,997.29
2023-05-12T23:52:52.676Z,996.99
2023-05-12T23:57:56.863Z,997.06
